sensor_id;sensor_type;location;lat;lon;timestamp;P1;durP1;ratioP1;P2;durP2;ratioP2
71360;SDS011;59166;48.908;1.870;2023-03-05T00:00:53;18.00;;;7.60;;
71360;SDS011;59166;48.908;1.870;2023-03-05T00:05:55;18.63;;;7.40;;
71360;SDS011;59166;48.908;1.870;2023-03-05T00:10:56;19.92;;;7.93;;
71360;SDS011;59166;48.908;1.870;2023-03-05T00:15:58;16.93;;;7.20;;
71360;SDS011;59166;48.908;1.870;2023-03-05T00:21:02;18.60;;;7.17;;
71360;SDS011;59166;48.908;1.870;2023-03-05T00:26:03;17.27;;;7.22;;
71360;SDS011;59166;48.908;1.870;2023-03-05T00:31:05;17.73;;;7.50;;
71360;SDS011;59166;48.908;1.870;2023-03-05T00:36:06;18.30;;;7.93;;
71360;SDS011;59166;48.908;1.870;2023-03-05T00:41:07;18.95;;;7.90;;
71360;SDS011;59166;48.908;1.870;2023-03-05T00:46:09;19.40;;;8.10;;
71360;SDS011;59166;48.908;1.870;2023-03-05T00:51:10;20.98;;;7.47;;
71360;SDS011;59166;48.908;1.870;2023-03-05T00:56:11;18.83;;;8.00;;
71360;SDS011;59166;48.908;1.870;2023-03-05T01:01:13;16.33;;;7.10;;
71360;SDS011;59166;48.908;1.870;2023-03-05T01:06:13;17.00;;;7.30;;
71360;SDS011;59166;48.908;1.870;2023-03-05T01:11:15;20.45;;;8.68;;
71360;SDS011;59166;48.908;1.870;2023-03-05T01:16:17;22.07;;;9.70;;
71360;SDS011;59166;48.908;1.870;2023-03-05T01:21:17;21.20;;;8.40;;
71360;SDS011;59166;48.908;1.870;2023-03-05T01:26:18;21.27;;;8.90;;
71360;SDS011;59166;48.908;1.870;2023-03-05T01:31:20;20.50;;;8.23;;
71360;SDS011;59166;48.908;1.870;2023-03-05T01:36:21;19.10;;;7.73;;
71360;SDS011;59166;48.908;1.870;2023-03-05T01:41:22;19.50;;;7.55;;
71360;SDS011;59166;48.908;1.870;2023-03-05T01:46:26;20.80;;;7.90;;
71360;SDS011;59166;48.908;1.870;2023-03-05T01:51:29;17.58;;;7.15;;
71360;SDS011;59166;48.908;1.870;2023-03-05T01:56:31;18.23;;;7.55;;
71360;SDS011;59166;48.908;1.870;2023-03-05T02:01:35;19.73;;;7.77;;
71360;SDS011;59166;48.908;1.870;2023-03-05T02:06:38;22.30;;;8.17;;
71360;SDS011;59166;48.908;1.870;2023-03-05T02:11:42;21.85;;;8.10;;
71360;SDS011;59166;48.908;1.870;2023-03-05T02:16:44;20.37;;;7.47;;
71360;SDS011;59166;48.908;1.870;2023-03-05T02:21:47;18.92;;;7.53;;
71360;SDS011;59166;48.908;1.870;2023-03-05T02:26:48;18.83;;;7.55;;
71360;SDS011;59166;48.908;1.870;2023-03-05T02:31:49;16.67;;;6.73;;
71360;SDS011;59166;48.908;1.870;2023-03-05T02:36:51;19.10;;;7.00;;
71360;SDS011;59166;48.908;1.870;2023-03-05T02:41:51;18.25;;;7.00;;
71360;SDS011;59166;48.908;1.870;2023-03-05T02:46:52;17.00;;;7.00;;
71360;SDS011;59166;48.908;1.870;2023-03-05T02:51:54;19.40;;;7.55;;
71360;SDS011;59166;48.908;1.870;2023-03-05T02:56:55;18.07;;;7.47;;
71360;SDS011;59166;48.908;1.870;2023-03-05T03:01:55;17.67;;;7.55;;
71360;SDS011;59166;48.908;1.870;2023-03-05T03:06:57;17.53;;;6.80;;
71360;SDS011;59166;48.908;1.870;2023-03-05T03:11:58;19.20;;;7.27;;
71360;SDS011;59166;48.908;1.870;2023-03-05T03:16:59;19.63;;;7.67;;
71360;SDS011;59166;48.908;1.870;2023-03-05T03:22:01;17.13;;;6.93;;
71360;SDS011;59166;48.908;1.870;2023-03-05T03:27:02;17.70;;;7.30;;
71360;SDS011;59166;48.908;1.870;2023-03-05T03:32:03;19.37;;;7.53;;
71360;SDS011;59166;48.908;1.870;2023-03-05T03:37:05;18.73;;;7.15;;
71360;SDS011;59166;48.908;1.870;2023-03-05T03:42:06;18.48;;;7.30;;
71360;SDS011;59166;48.908;1.870;2023-03-05T03:47:06;18.33;;;7.53;;
71360;SDS011;59166;48.908;1.870;2023-03-05T03:52:08;18.83;;;7.47;;
71360;SDS011;59166;48.908;1.870;2023-03-05T03:57:09;21.23;;;7.97;;
71360;SDS011;59166;48.908;1.870;2023-03-05T04:02:10;19.33;;;7.50;;
71360;SDS011;59166;48.908;1.870;2023-03-05T04:07:12;19.23;;;7.83;;
71360;SDS011;59166;48.908;1.870;2023-03-05T04:12:12;20.35;;;7.45;;
71360;SDS011;59166;48.908;1.870;2023-03-05T04:17:14;17.50;;;6.93;;
71360;SDS011;59166;48.908;1.870;2023-03-05T04:22:16;17.40;;;7.55;;
71360;SDS011;59166;48.908;1.870;2023-03-05T04:27:17;19.60;;;7.57;;
71360;SDS011;59166;48.908;1.870;2023-03-05T04:32:18;19.02;;;8.15;;
71360;SDS011;59166;48.908;1.870;2023-03-05T04:37:20;19.37;;;7.87;;
71360;SDS011;59166;48.908;1.870;2023-03-05T04:42:20;25.07;;;8.30;;
71360;SDS011;59166;48.908;1.870;2023-03-05T04:47:21;18.97;;;7.57;;
71360;SDS011;59166;48.908;1.870;2023-03-05T04:52:23;17.77;;;6.93;;
71360;SDS011;59166;48.908;1.870;2023-03-05T04:57:24;18.83;;;7.43;;
71360;SDS011;59166;48.908;1.870;2023-03-05T05:02:25;17.20;;;6.87;;
71360;SDS011;59166;48.908;1.870;2023-03-05T05:07:27;19.38;;;7.28;;
71360;SDS011;59166;48.908;1.870;2023-03-05T05:12:27;20.53;;;7.70;;
71360;SDS011;59166;48.908;1.870;2023-03-05T05:17:28;18.90;;;7.05;;
71360;SDS011;59166;48.908;1.870;2023-03-05T05:22:31;20.53;;;6.83;;
71360;SDS011;59166;48.908;1.870;2023-03-05T05:27:32;19.33;;;7.03;;
71360;SDS011;59166;48.908;1.870;2023-03-05T05:32:33;20.33;;;7.67;;
71360;SDS011;59166;48.908;1.870;2023-03-05T05:37:35;17.70;;;7.07;;
71360;SDS011;59166;48.908;1.870;2023-03-05T05:42:36;19.40;;;7.27;;
71360;SDS011;59166;48.908;1.870;2023-03-05T05:47:36;19.70;;;7.20;;
71360;SDS011;59166;48.908;1.870;2023-03-05T05:52:39;19.37;;;7.57;;
71360;SDS011;59166;48.908;1.870;2023-03-05T05:57:39;20.30;;;7.22;;
71360;SDS011;59166;48.908;1.870;2023-03-05T06:02:40;21.00;;;7.63;;
71360;SDS011;59166;48.908;1.870;2023-03-05T06:07:43;19.42;;;7.25;;
71360;SDS011;59166;48.908;1.870;2023-03-05T06:12:44;20.17;;;7.65;;
71360;SDS011;59166;48.908;1.870;2023-03-05T06:17:45;19.30;;;6.67;;
71360;SDS011;59166;48.908;1.870;2023-03-05T06:22:47;18.77;;;7.03;;
71360;SDS011;59166;48.908;1.870;2023-03-05T06:27:47;20.10;;;7.47;;
71360;SDS011;59166;48.908;1.870;2023-03-05T06:32:48;19.87;;;7.20;;
71360;SDS011;59166;48.908;1.870;2023-03-05T06:37:50;21.73;;;6.85;;
71360;SDS011;59166;48.908;1.870;2023-03-05T06:42:51;21.27;;;7.27;;
71360;SDS011;59166;48.908;1.870;2023-03-05T06:47:51;21.00;;;6.88;;
71360;SDS011;59166;48.908;1.870;2023-03-05T06:52:53;20.90;;;7.17;;
71360;SDS011;59166;48.908;1.870;2023-03-05T06:57:54;20.65;;;7.05;;
71360;SDS011;59166;48.908;1.870;2023-03-05T07:02:55;20.33;;;7.23;;
71360;SDS011;59166;48.908;1.870;2023-03-05T07:07:57;22.13;;;7.93;;
71360;SDS011;59166;48.908;1.870;2023-03-05T07:12:57;22.80;;;8.43;;
71360;SDS011;59166;48.908;1.870;2023-03-05T07:17:58;21.60;;;7.63;;
71360;SDS011;59166;48.908;1.870;2023-03-05T07:23:00;20.73;;;7.90;;
71360;SDS011;59166;48.908;1.870;2023-03-05T07:28:01;20.13;;;7.68;;
71360;SDS011;59166;48.908;1.870;2023-03-05T07:33:02;19.37;;;6.77;;
71360;SDS011;59166;48.908;1.870;2023-03-05T07:38:04;19.58;;;7.20;;
71360;SDS011;59166;48.908;1.870;2023-03-05T07:43:04;21.37;;;7.43;;
71360;SDS011;59166;48.908;1.870;2023-03-05T07:48:05;18.63;;;6.65;;
71360;SDS011;59166;48.908;1.870;2023-03-05T07:53:08;19.83;;;7.10;;
71360;SDS011;59166;48.908;1.870;2023-03-05T07:58:08;17.10;;;6.28;;
71360;SDS011;59166;48.908;1.870;2023-03-05T08:03:09;20.50;;;7.20;;
71360;SDS011;59166;48.908;1.870;2023-03-05T08:08:16;20.83;;;6.73;;
71360;SDS011;59166;48.908;1.870;2023-03-05T08:13:17;20.50;;;7.20;;
71360;SDS011;59166;48.908;1.870;2023-03-05T08:18:18;18.30;;;6.70;;
71360;SDS011;59166;48.908;1.870;2023-03-05T08:23:20;17.25;;;6.35;;
71360;SDS011;59166;48.908;1.870;2023-03-05T08:28:21;16.90;;;6.23;;
71360;SDS011;59166;48.908;1.870;2023-03-05T08:33:22;14.95;;;5.43;;
71360;SDS011;59166;48.908;1.870;2023-03-05T08:38:24;15.90;;;5.20;;
71360;SDS011;59166;48.908;1.870;2023-03-05T08:43:24;17.70;;;6.45;;
71360;SDS011;59166;48.908;1.870;2023-03-05T08:48:25;16.17;;;6.13;;
71360;SDS011;59166;48.908;1.870;2023-03-05T08:53:27;15.30;;;5.65;;
71360;SDS011;59166;48.908;1.870;2023-03-05T08:58:28;18.63;;;6.37;;
71360;SDS011;59166;48.908;1.870;2023-03-05T09:03:29;16.88;;;6.38;;
71360;SDS011;59166;48.908;1.870;2023-03-05T09:08:31;17.73;;;6.77;;
71360;SDS011;59166;48.908;1.870;2023-03-05T09:13:32;20.17;;;7.35;;
71360;SDS011;59166;48.908;1.870;2023-03-05T09:18:33;19.03;;;6.83;;
71360;SDS011;59166;48.908;1.870;2023-03-05T09:23:35;19.45;;;6.90;;
71360;SDS011;59166;48.908;1.870;2023-03-05T09:28:36;18.17;;;6.63;;
71360;SDS011;59166;48.908;1.870;2023-03-05T09:33:37;18.40;;;6.63;;
71360;SDS011;59166;48.908;1.870;2023-03-05T09:38:39;16.53;;;5.83;;
71360;SDS011;59166;48.908;1.870;2023-03-05T09:43:43;17.30;;;6.43;;
71360;SDS011;59166;48.908;1.870;2023-03-05T09:48:55;13.18;;;5.03;;
71360;SDS011;59166;48.908;1.870;2023-03-05T09:54:06;15.30;;;5.37;;
71360;SDS011;59166;48.908;1.870;2023-03-05T09:59:15;16.03;;;5.60;;
71360;SDS011;59166;48.908;1.870;2023-03-05T10:04:23;14.50;;;4.82;;
71360;SDS011;59166;48.908;1.870;2023-03-05T10:09:34;15.35;;;5.53;;
71360;SDS011;59166;48.908;1.870;2023-03-05T10:14:42;13.17;;;4.63;;
71360;SDS011;59166;48.908;1.870;2023-03-05T10:19:55;14.50;;;5.07;;
71360;SDS011;59166;48.908;1.870;2023-03-05T10:25:19;13.75;;;5.05;;
71360;SDS011;59166;48.908;1.870;2023-03-05T10:30:31;14.70;;;5.20;;
71360;SDS011;59166;48.908;1.870;2023-03-05T10:35:49;10.93;;;4.22;;
71360;SDS011;59166;48.908;1.870;2023-03-05T10:41:12;9.93;;;3.22;;
71360;SDS011;59166;48.908;1.870;2023-03-05T10:46:21;9.50;;;3.10;;
71360;SDS011;59166;48.908;1.870;2023-03-05T10:51:32;7.05;;;2.15;;
71360;SDS011;59166;48.908;1.870;2023-03-05T10:56:38;8.13;;;2.72;;
71360;SDS011;59166;48.908;1.870;2023-03-05T11:01:38;9.77;;;3.03;;
71360;SDS011;59166;48.908;1.870;2023-03-05T11:06:40;10.40;;;3.60;;
71360;SDS011;59166;48.908;1.870;2023-03-05T11:11:44;8.48;;;2.92;;
71360;SDS011;59166;48.908;1.870;2023-03-05T11:17:16;8.27;;;2.80;;
71360;SDS011;59166;48.908;1.870;2023-03-05T11:22:23;9.63;;;2.60;;
71360;SDS011;59166;48.908;1.870;2023-03-05T11:27:28;7.05;;;2.30;;
71360;SDS011;59166;48.908;1.870;2023-03-05T11:32:34;8.43;;;2.78;;
71360;SDS011;59166;48.908;1.870;2023-03-05T11:37:35;6.27;;;1.67;;
71360;SDS011;59166;48.908;1.870;2023-03-05T11:42:37;7.03;;;2.30;;
71360;SDS011;59166;48.908;1.870;2023-03-05T11:47:41;8.03;;;2.40;;
71360;SDS011;59166;48.908;1.870;2023-03-05T11:52:46;6.30;;;1.77;;
71360;SDS011;59166;48.908;1.870;2023-03-05T11:57:52;5.95;;;1.80;;
71360;SDS011;59166;48.908;1.870;2023-03-05T12:03:06;6.70;;;2.03;;
71360;SDS011;59166;48.908;1.870;2023-03-05T12:08:13;6.70;;;1.98;;
71360;SDS011;59166;48.908;1.870;2023-03-05T12:13:21;6.55;;;1.98;;
71360;SDS011;59166;48.908;1.870;2023-03-05T12:18:31;7.37;;;2.07;;
71360;SDS011;59166;48.908;1.870;2023-03-05T12:23:45;7.23;;;2.30;;
71360;SDS011;59166;48.908;1.870;2023-03-05T12:28:55;12.82;;;3.92;;
71360;SDS011;59166;48.908;1.870;2023-03-05T12:33:56;7.22;;;2.30;;
71360;SDS011;59166;48.908;1.870;2023-03-05T12:38:57;11.13;;;4.23;;
71360;SDS011;59166;48.908;1.870;2023-03-05T12:44:13;9.13;;;2.92;;
71360;SDS011;59166;48.908;1.870;2023-03-05T12:49:27;8.50;;;3.10;;
71360;SDS011;59166;48.908;1.870;2023-03-05T12:54:30;12.65;;;4.38;;
71360;SDS011;59166;48.908;1.870;2023-03-05T12:59:37;11.15;;;4.10;;
71360;SDS011;59166;48.908;1.870;2023-03-05T13:04:43;10.63;;;4.27;;
71360;SDS011;59166;48.908;1.870;2023-03-05T13:09:51;11.80;;;3.70;;
71360;SDS011;59166;48.908;1.870;2023-03-05T13:15:02;10.68;;;3.85;;
71360;SDS011;59166;48.908;1.870;2023-03-05T13:25:29;12.90;;;4.40;;
71360;SDS011;59166;48.908;1.870;2023-03-05T13:30:31;12.80;;;4.82;;
71360;SDS011;59166;48.908;1.870;2023-03-05T13:35:32;11.60;;;4.70;;
71360;SDS011;59166;48.908;1.870;2023-03-05T13:40:34;11.57;;;4.47;;
71360;SDS011;59166;48.908;1.870;2023-03-05T13:45:36;10.97;;;4.50;;
71360;SDS011;59166;48.908;1.870;2023-03-05T13:50:38;14.40;;;6.07;;
71360;SDS011;59166;48.908;1.870;2023-03-05T13:55:39;12.98;;;5.53;;
71360;SDS011;59166;48.908;1.870;2023-03-05T14:00:42;12.05;;;4.78;;
71360;SDS011;59166;48.908;1.870;2023-03-05T14:05:43;12.27;;;4.90;;
71360;SDS011;59166;48.908;1.870;2023-03-05T14:10:44;14.43;;;4.72;;
71360;SDS011;59166;48.908;1.870;2023-03-05T14:21:07;11.60;;;4.47;;
71360;SDS011;59166;48.908;1.870;2023-03-05T14:26:17;11.15;;;4.30;;
71360;SDS011;59166;48.908;1.870;2023-03-05T14:31:23;12.00;;;4.80;;
71360;SDS011;59166;48.908;1.870;2023-03-05T14:36:25;12.13;;;4.60;;
71360;SDS011;59166;48.908;1.870;2023-03-05T14:41:32;13.00;;;4.30;;
71360;SDS011;59166;48.908;1.870;2023-03-05T14:46:36;11.32;;;4.47;;
71360;SDS011;59166;48.908;1.870;2023-03-05T14:51:38;12.18;;;3.90;;
71360;SDS011;59166;48.908;1.870;2023-03-05T14:56:41;9.83;;;3.70;;
71360;SDS011;59166;48.908;1.870;2023-03-05T15:01:43;10.43;;;4.15;;
71360;SDS011;59166;48.908;1.870;2023-03-05T15:06:44;10.43;;;4.10;;
71360;SDS011;59166;48.908;1.870;2023-03-05T15:11:46;10.47;;;3.73;;
71360;SDS011;59166;48.908;1.870;2023-03-05T15:16:48;10.15;;;4.25;;
71360;SDS011;59166;48.908;1.870;2023-03-05T15:21:49;8.77;;;3.13;;
71360;SDS011;59166;48.908;1.870;2023-03-05T15:26:50;9.27;;;3.37;;
71360;SDS011;59166;48.908;1.870;2023-03-05T15:31:53;10.70;;;3.47;;
71360;SDS011;59166;48.908;1.870;2023-03-05T15:36:53;10.27;;;3.35;;
71360;SDS011;59166;48.908;1.870;2023-03-05T15:41:54;8.95;;;3.17;;
71360;SDS011;59166;48.908;1.870;2023-03-05T15:46:57;9.67;;;3.50;;
71360;SDS011;59166;48.908;1.870;2023-03-05T15:51:58;9.15;;;3.33;;
71360;SDS011;59166;48.908;1.870;2023-03-05T15:56:59;10.52;;;3.67;;
71360;SDS011;59166;48.908;1.870;2023-03-05T16:02:01;9.03;;;3.57;;
71360;SDS011;59166;48.908;1.870;2023-03-05T16:07:02;10.25;;;3.78;;
71360;SDS011;59166;48.908;1.870;2023-03-05T16:12:05;12.93;;;4.83;;
71360;SDS011;59166;48.908;1.870;2023-03-05T16:17:09;10.68;;;3.97;;
71360;SDS011;59166;48.908;1.870;2023-03-05T16:22:10;11.75;;;4.82;;
71360;SDS011;59166;48.908;1.870;2023-03-05T16:27:12;12.37;;;4.47;;
71360;SDS011;59166;48.908;1.870;2023-03-05T16:32:14;12.00;;;4.73;;
71360;SDS011;59166;48.908;1.870;2023-03-05T16:37:16;13.40;;;4.90;;
71360;SDS011;59166;48.908;1.870;2023-03-05T16:42:18;12.43;;;4.87;;
71360;SDS011;59166;48.908;1.870;2023-03-05T16:47:20;12.18;;;4.60;;
71360;SDS011;59166;48.908;1.870;2023-03-05T16:52:21;15.53;;;6.00;;
71360;SDS011;59166;48.908;1.870;2023-03-05T16:57:22;15.40;;;6.40;;
71360;SDS011;59166;48.908;1.870;2023-03-05T17:02:25;13.63;;;5.30;;
71360;SDS011;59166;48.908;1.870;2023-03-05T17:07:25;15.17;;;5.90;;
71360;SDS011;59166;48.908;1.870;2023-03-05T17:12:26;16.42;;;6.93;;
71360;SDS011;59166;48.908;1.870;2023-03-05T17:17:29;16.07;;;6.90;;
71360;SDS011;59166;48.908;1.870;2023-03-05T17:22:29;13.48;;;5.32;;
71360;SDS011;59166;48.908;1.870;2023-03-05T17:27:30;15.17;;;6.47;;
71360;SDS011;59166;48.908;1.870;2023-03-05T17:32:33;14.80;;;6.40;;
71360;SDS011;59166;48.908;1.870;2023-03-05T17:37:33;16.35;;;6.82;;
71360;SDS011;59166;48.908;1.870;2023-03-05T17:42:34;15.63;;;7.10;;
71360;SDS011;59166;48.908;1.870;2023-03-05T17:47:37;16.37;;;7.30;;
71360;SDS011;59166;48.908;1.870;2023-03-05T17:52:38;16.47;;;6.93;;
71360;SDS011;59166;48.908;1.870;2023-03-05T17:57:40;14.85;;;6.70;;
71360;SDS011;59166;48.908;1.870;2023-03-05T18:02:43;17.10;;;7.47;;
71360;SDS011;59166;48.908;1.870;2023-03-05T18:07:44;18.53;;;9.03;;
71360;SDS011;59166;48.908;1.870;2023-03-05T18:12:45;17.52;;;8.40;;
71360;SDS011;59166;48.908;1.870;2023-03-05T18:17:48;19.45;;;9.02;;
71360;SDS011;59166;48.908;1.870;2023-03-05T18:22:49;23.70;;;10.87;;
71360;SDS011;59166;48.908;1.870;2023-03-05T18:27:50;23.77;;;11.65;;
71360;SDS011;59166;48.908;1.870;2023-03-05T18:32:53;23.27;;;11.53;;
71360;SDS011;59166;48.908;1.870;2023-03-05T18:37:54;24.13;;;11.33;;
71360;SDS011;59166;48.908;1.870;2023-03-05T18:42:57;30.00;;;13.65;;
71360;SDS011;59166;48.908;1.870;2023-03-05T18:48:01;28.95;;;13.20;;
71360;SDS011;59166;48.908;1.870;2023-03-05T18:53:01;32.67;;;15.47;;
71360;SDS011;59166;48.908;1.870;2023-03-05T18:58:02;37.33;;;17.45;;
71360;SDS011;59166;48.908;1.870;2023-03-05T19:03:04;38.67;;;18.30;;
71360;SDS011;59166;48.908;1.870;2023-03-05T19:08:06;36.20;;;17.13;;
71360;SDS011;59166;48.908;1.870;2023-03-05T19:13:07;37.08;;;18.15;;
71360;SDS011;59166;48.908;1.870;2023-03-05T19:18:09;36.30;;;17.97;;
71360;SDS011;59166;48.908;1.870;2023-03-05T19:23:10;37.30;;;16.98;;
71360;SDS011;59166;48.908;1.870;2023-03-05T19:28:11;33.00;;;17.37;;
71360;SDS011;59166;48.908;1.870;2023-03-05T19:33:13;30.73;;;15.63;;
71360;SDS011;59166;48.908;1.870;2023-03-05T19:38:14;31.67;;;15.20;;
71360;SDS011;59166;48.908;1.870;2023-03-05T19:43:15;29.42;;;14.77;;
71360;SDS011;59166;48.908;1.870;2023-03-05T19:48:17;26.57;;;13.90;;
71360;SDS011;59166;48.908;1.870;2023-03-05T19:53:18;26.83;;;12.85;;
71360;SDS011;59166;48.908;1.870;2023-03-05T19:58:19;26.52;;;13.55;;
71360;SDS011;59166;48.908;1.870;2023-03-05T20:03:21;24.77;;;12.90;;
71360;SDS011;59166;48.908;1.870;2023-03-05T20:08:22;25.85;;;13.23;;
71360;SDS011;59166;48.908;1.870;2023-03-05T20:13:23;30.17;;;14.30;;
71360;SDS011;59166;48.908;1.870;2023-03-05T20:18:26;29.10;;;13.77;;
71360;SDS011;59166;48.908;1.870;2023-03-05T20:23:30;26.08;;;12.73;;
71360;SDS011;59166;48.908;1.870;2023-03-05T20:28:34;26.37;;;13.07;;
71360;SDS011;59166;48.908;1.870;2023-03-05T20:33:39;27.35;;;12.75;;
71360;SDS011;59166;48.908;1.870;2023-03-05T20:38:47;26.73;;;12.63;;
71360;SDS011;59166;48.908;1.870;2023-03-05T20:43:56;30.33;;;14.23;;
71360;SDS011;59166;48.908;1.870;2023-03-05T20:49:19;26.60;;;11.87;;
71360;SDS011;59166;48.908;1.870;2023-03-05T20:54:20;26.95;;;13.00;;
71360;SDS011;59166;48.908;1.870;2023-03-05T20:59:25;31.67;;;15.07;;
71360;SDS011;59166;48.908;1.870;2023-03-05T21:04:39;33.10;;;14.90;;
71360;SDS011;59166;48.908;1.870;2023-03-05T21:09:49;29.63;;;14.05;;
71360;SDS011;59166;48.908;1.870;2023-03-05T21:14:51;27.45;;;13.02;;
71360;SDS011;59166;48.908;1.870;2023-03-05T21:19:54;27.07;;;12.50;;
71360;SDS011;59166;48.908;1.870;2023-03-05T21:24:55;27.33;;;12.35;;
71360;SDS011;59166;48.908;1.870;2023-03-05T21:29:57;26.60;;;12.18;;
71360;SDS011;59166;48.908;1.870;2023-03-05T21:35:00;29.40;;;13.63;;
71360;SDS011;59166;48.908;1.870;2023-03-05T21:40:01;29.85;;;13.77;;
71360;SDS011;59166;48.908;1.870;2023-03-05T21:45:02;27.95;;;12.32;;
71360;SDS011;59166;48.908;1.870;2023-03-05T21:50:06;28.20;;;13.47;;
71360;SDS011;59166;48.908;1.870;2023-03-05T21:55:10;28.38;;;13.18;;
71360;SDS011;59166;48.908;1.870;2023-03-05T22:00:11;27.67;;;12.23;;
71360;SDS011;59166;48.908;1.870;2023-03-05T22:05:15;31.87;;;14.63;;
71360;SDS011;59166;48.908;1.870;2023-03-05T22:10:16;32.93;;;14.70;;
71360;SDS011;59166;48.908;1.870;2023-03-05T22:15:19;31.08;;;15.23;;
71360;SDS011;59166;48.908;1.870;2023-03-05T22:20:22;31.48;;;15.02;;
71360;SDS011;59166;48.908;1.870;2023-03-05T22:25:23;31.27;;;13.70;;
71360;SDS011;59166;48.908;1.870;2023-03-05T22:30:24;36.25;;;16.33;;
71360;SDS011;59166;48.908;1.870;2023-03-05T22:35:26;30.50;;;13.73;;
71360;SDS011;59166;48.908;1.870;2023-03-05T22:40:28;33.50;;;14.70;;
71360;SDS011;59166;48.908;1.870;2023-03-05T22:45:29;34.83;;;15.90;;
71360;SDS011;59166;48.908;1.870;2023-03-05T22:50:31;30.93;;;14.00;;
71360;SDS011;59166;48.908;1.870;2023-03-05T22:55:32;35.58;;;15.88;;
71360;SDS011;59166;48.908;1.870;2023-03-05T23:00:33;35.45;;;15.57;;
71360;SDS011;59166;48.908;1.870;2023-03-05T23:05:37;35.57;;;15.33;;
71360;SDS011;59166;48.908;1.870;2023-03-05T23:10:38;36.53;;;16.45;;
71360;SDS011;59166;48.908;1.870;2023-03-05T23:15:39;33.60;;;14.90;;
71360;SDS011;59166;48.908;1.870;2023-03-05T23:20:41;34.40;;;14.95;;
71360;SDS011;59166;48.908;1.870;2023-03-05T23:25:42;33.10;;;14.40;;
71360;SDS011;59166;48.908;1.870;2023-03-05T23:30:43;32.30;;;13.93;;
71360;SDS011;59166;48.908;1.870;2023-03-05T23:35:49;33.67;;;13.43;;
71360;SDS011;59166;48.908;1.870;2023-03-05T23:40:52;32.23;;;13.77;;
71360;SDS011;59166;48.908;1.870;2023-03-05T23:45:53;35.40;;;13.68;;
71360;SDS011;59166;48.908;1.870;2023-03-05T23:50:56;32.03;;;13.60;;
71360;SDS011;59166;48.908;1.870;2023-03-05T23:55:57;33.50;;;14.48;;
